createdAt,value
2022-12-27T00:01:02.848Z,3.50
2022-12-27T00:05:12.431Z,5.90
2022-12-27T00:09:19.892Z,4.40
2022-12-27T00:13:27.907Z,5.30
2022-12-27T00:17:36.692Z,5.30
2022-12-27T00:21:44.371Z,5.10
2022-12-27T00:25:52.664Z,6.20
2022-12-27T00:30:03.085Z,3.80
2022-12-27T00:34:11.043Z,5.00
2022-12-27T00:38:18.955Z,5.60
2022-12-27T00:42:27.178Z,6.00
2022-12-27T00:46:35.349Z,7.30
2022-12-27T00:50:44.675Z,6.50
2022-12-27T00:54:52.528Z,5.90
2022-12-27T00:59:04.556Z,5.60
2022-12-27T01:03:13.588Z,5.40
2022-12-27T01:07:22.119Z,5.60
2022-12-27T01:11:29.698Z,5.80
2022-12-27T01:15:37.779Z,4.90
2022-12-27T01:19:46.148Z,4.50
2022-12-27T01:23:55.547Z,3.70
2022-12-27T01:28:03.889Z,4.60
2022-12-27T01:32:12.543Z,4.80
2022-12-27T01:36:23.185Z,6.40
2022-12-27T01:40:30.911Z,5.30
2022-12-27T01:44:59.585Z,5.10
2022-12-27T01:49:09.218Z,4.40
2022-12-27T01:53:20.823Z,5.30
2022-12-27T01:57:29.235Z,6.70
2022-12-27T02:01:39.729Z,6.50
2022-12-27T02:05:47.683Z,4.10
2022-12-27T02:09:58.436Z,5.10
2022-12-27T02:14:06.748Z,5.70
2022-12-27T02:18:15.230Z,4.70
2022-12-27T02:23:08.244Z,5.70
2022-12-27T02:27:24.649Z,4.60
2022-12-27T02:31:36.348Z,5.60
2022-12-27T02:35:46.889Z,5.20
2022-12-27T02:39:57.513Z,7.40
2022-12-27T02:44:34.326Z,6.20
2022-12-27T02:49:09.168Z,5.20
2022-12-27T02:53:23.923Z,7.30
2022-12-27T02:57:39.660Z,6.10
2022-12-27T03:02:11.941Z,6.10
2022-12-27T03:06:46.759Z,6.80
2022-12-27T03:11:17.096Z,6.70
2022-12-27T03:15:52.056Z,6.40
2022-12-27T03:20:19.716Z,6.70
2022-12-27T03:24:47.651Z,7.50
2022-12-27T03:29:15.569Z,6.50
2022-12-27T03:33:24.543Z,4.70
2022-12-27T03:37:51.181Z,8.50
2022-12-27T03:42:20.461Z,6.90
2022-12-27T03:46:39.171Z,7.20
2022-12-27T03:50:50.665Z,9.10
2022-12-27T03:54:59.313Z,6.20
2022-12-27T03:59:08.173Z,6.10
2022-12-27T04:03:15.817Z,5.50
2022-12-27T04:07:24.251Z,7.80
2022-12-27T04:11:49.805Z,9.20
2022-12-27T04:16:15.665Z,6.50
2022-12-27T04:20:41.103Z,5.90
2022-12-27T04:25:07.275Z,9.30
2022-12-27T04:29:33.610Z,7.40
2022-12-27T04:33:59.064Z,7.40
2022-12-27T04:38:07.751Z,7.40
2022-12-27T04:42:33.639Z,4.70
2022-12-27T04:46:59.486Z,8.80
2022-12-27T04:51:25.591Z,5.90
2022-12-27T04:55:33.700Z,6.90
2022-12-27T04:59:59.367Z,5.90
2022-12-27T05:04:07.601Z,8.40
2022-12-27T05:08:34.318Z,6.40
2022-12-27T05:12:56.077Z,7.00
2022-12-27T05:17:04.244Z,6.60
2022-12-27T05:21:11.983Z,6.20
2022-12-27T05:25:37.466Z,5.10
2022-12-27T05:29:45.156Z,4.80
2022-12-27T05:33:53.557Z,10.30
2022-12-27T05:38:01.547Z,10.90
2022-12-27T05:42:09.820Z,8.80
2022-12-27T05:46:19.801Z,8.20
2022-12-27T05:50:27.832Z,8.20
2022-12-27T05:54:35.615Z,7.70
2022-12-27T05:58:43.105Z,9.80
2022-12-27T06:02:50.940Z,12.90
2022-12-27T06:06:59.697Z,8.30
2022-12-27T06:11:09.693Z,8.80
2022-12-27T06:15:17.463Z,14.00
2022-12-27T06:19:25.361Z,16.20
2022-12-27T06:23:33.887Z,9.20
2022-12-27T06:27:43.830Z,7.80
2022-12-27T06:31:51.662Z,6.60
2022-12-27T06:36:00.303Z,6.00
2022-12-27T06:40:10.733Z,7.80
2022-12-27T06:44:18.980Z,9.40
2022-12-27T06:48:26.885Z,11.00
2022-12-27T06:52:34.491Z,11.60
2022-12-27T06:56:42.106Z,8.60
2022-12-27T07:00:50.023Z,5.50
2022-12-27T07:04:58.230Z,7.30
2022-12-27T07:09:06.368Z,9.00
2022-12-27T07:13:13.937Z,7.10
2022-12-27T07:17:21.709Z,10.70
2022-12-27T07:21:30.656Z,9.50
2022-12-27T07:25:38.651Z,7.90
2022-12-27T07:29:47.029Z,9.20
2022-12-27T07:33:55.221Z,8.50
2022-12-27T07:38:03.854Z,7.50
2022-12-27T07:42:12.018Z,27.30
2022-12-27T07:46:21.654Z,5.70
2022-12-27T07:50:30.197Z,8.20
2022-12-27T07:54:37.948Z,7.20
2022-12-27T07:58:46.970Z,8.40
2022-12-27T08:02:54.848Z,7.90
2022-12-27T08:07:06.601Z,7.60
2022-12-27T08:11:14.833Z,8.30
2022-12-27T08:15:25.516Z,6.70
2022-12-27T08:19:32.898Z,7.60
2022-12-27T08:23:42.332Z,7.30
2022-12-27T08:27:50.719Z,8.80
2022-12-27T08:31:59.461Z,7.30
2022-12-27T08:40:45.450Z,9.70
2022-12-27T08:44:54.449Z,11.10
2022-12-27T08:49:02.972Z,7.10
2022-12-27T08:53:11.688Z,5.00
2022-12-27T08:57:20.093Z,7.60
2022-12-27T09:01:28.086Z,8.40
2022-12-27T09:05:41.593Z,9.10
2022-12-27T09:09:50.074Z,7.80
2022-12-27T09:13:59.759Z,9.20
2022-12-27T09:18:07.328Z,10.50
2022-12-27T09:22:15.292Z,10.00
2022-12-27T09:26:25.271Z,8.10
2022-12-27T09:30:34.617Z,7.40
2022-12-27T09:34:44.258Z,5.50
2022-12-27T09:38:54.734Z,9.90
2022-12-27T09:43:20.757Z,9.40
2022-12-27T09:47:37.923Z,8.50
2022-12-27T09:51:52.049Z,8.40
2022-12-27T09:56:01.646Z,7.00
2022-12-27T10:00:17.757Z,8.20
2022-12-27T10:04:39.494Z,9.00
2022-12-27T10:08:59.932Z,5.90
2022-12-27T10:13:20.487Z,7.70
2022-12-27T10:17:40.104Z,6.80
2022-12-27T10:22:03.808Z,7.00
2022-12-27T10:26:15.829Z,7.50
2022-12-27T10:30:26.160Z,5.80
2022-12-27T10:34:34.224Z,6.30
2022-12-27T10:38:44.890Z,10.00
2022-12-27T10:43:03.545Z,5.70
2022-12-27T10:47:13.965Z,5.90
2022-12-27T10:51:23.602Z,5.80
2022-12-27T10:55:40.451Z,6.50
2022-12-27T10:59:48.543Z,7.60
2022-12-27T11:04:19.346Z,7.90
2022-12-27T11:08:28.419Z,7.60
2022-12-27T11:12:36.780Z,7.00
2022-12-27T11:16:45.105Z,5.10
2022-12-27T11:20:56.470Z,7.70
2022-12-27T11:25:04.324Z,6.50
2022-12-27T11:29:20.515Z,9.20
2022-12-27T11:33:35.102Z,6.30
2022-12-27T11:37:44.863Z,7.40
2022-12-27T11:41:55.489Z,6.20
2022-12-27T11:46:09.242Z,7.60
2022-12-27T11:50:55.676Z,6.10
2022-12-27T11:55:46.687Z,6.80
2022-12-27T12:00:03.995Z,7.70
2022-12-27T12:04:34.496Z,9.40
2022-12-27T12:08:56.348Z,7.30
2022-12-27T12:13:17.225Z,6.80
2022-12-27T12:17:45.015Z,8.30
2022-12-27T12:22:03.279Z,7.80
2022-12-27T12:26:15.961Z,9.10
2022-12-27T12:30:56.124Z,6.70
2022-12-27T12:35:29.594Z,6.20
2022-12-27T12:39:53.674Z,8.30
2022-12-27T12:44:22.102Z,8.80
2022-12-27T12:48:51.654Z,8.60
2022-12-27T12:53:22.896Z,9.20
2022-12-27T12:57:43.113Z,12.60
2022-12-27T13:02:00.834Z,8.00
2022-12-27T13:06:21.270Z,11.40
2022-12-27T13:11:13.527Z,8.50
2022-12-27T13:15:30.985Z,6.30
2022-12-27T13:20:08.232Z,9.80
2022-12-27T13:24:26.272Z,6.80
2022-12-27T13:28:48.406Z,8.80
2022-12-27T13:33:11.710Z,9.50
2022-12-27T13:37:27.376Z,10.00
2022-12-27T13:41:44.729Z,11.80
2022-12-27T13:46:02.469Z,11.80
2022-12-27T13:50:38.500Z,9.30
2022-12-27T13:55:07.612Z,9.20
2022-12-27T13:59:43.426Z,9.90
2022-12-27T14:03:59.891Z,9.80
2022-12-27T14:08:16.541Z,10.40
2022-12-27T14:12:49.510Z,8.90
2022-12-27T14:17:09.554Z,10.10
2022-12-27T14:21:39.485Z,11.30
2022-12-27T14:26:09.974Z,11.50
2022-12-27T14:30:41.314Z,11.80
2022-12-27T14:35:18.541Z,11.50
2022-12-27T14:40:04.629Z,11.30
2022-12-27T14:44:46.251Z,12.30
2022-12-27T14:49:14.972Z,11.80
2022-12-27T14:53:41.290Z,13.30
2022-12-27T14:57:57.754Z,17.60
2022-12-27T15:02:20.716Z,20.20
2022-12-27T15:06:44.535Z,22.00
2022-12-27T15:11:03.304Z,30.20
2022-12-27T15:15:21.588Z,18.10
2022-12-27T15:19:40.413Z,14.80
2022-12-27T15:23:53.509Z,17.60
2022-12-27T15:28:06.802Z,19.10
2022-12-27T15:32:25.311Z,21.00
2022-12-27T15:36:41.846Z,20.20
2022-12-27T15:41:14.591Z,23.30
2022-12-27T15:45:30.933Z,19.60
2022-12-27T15:49:49.172Z,16.80
2022-12-27T15:54:11.622Z,17.70
2022-12-27T15:58:20.390Z,20.70
2022-12-27T16:02:40.290Z,14.40
2022-12-27T16:06:56.606Z,17.70
2022-12-27T16:11:12.030Z,13.50
2022-12-27T16:15:52.247Z,11.80
2022-12-27T16:20:22.292Z,10.90
2022-12-27T16:24:30.585Z,8.80
2022-12-27T16:28:38.895Z,11.60
2022-12-27T16:32:52.856Z,10.70
2022-12-27T16:37:01.986Z,10.10
2022-12-27T16:41:18.977Z,13.20
2022-12-27T16:45:33.903Z,19.40
2022-12-27T16:50:01.048Z,15.70
2022-12-27T16:54:23.449Z,11.70
2022-12-27T16:58:38.859Z,14.50
2022-12-27T17:02:47.982Z,12.50
2022-12-27T17:07:01.579Z,10.50
2022-12-27T17:11:27.396Z,11.70
2022-12-27T17:15:35.563Z,13.60
2022-12-27T17:19:48.974Z,16.80
2022-12-27T17:23:57.858Z,18.30
2022-12-27T17:28:10.317Z,18.50
2022-12-27T17:32:29.668Z,16.80
2022-12-27T17:36:48.405Z,14.80
2022-12-27T17:41:07.940Z,17.30
2022-12-27T17:45:31.649Z,20.10
2022-12-27T17:49:40.037Z,15.10
2022-12-27T17:54:08.220Z,13.10
2022-12-27T17:58:18.162Z,15.90
2022-12-27T18:02:30.008Z,17.30
2022-12-27T18:06:39.955Z,18.60
2022-12-27T18:10:47.821Z,22.00
2022-12-27T18:14:59.606Z,26.40
2022-12-27T18:19:07.684Z,34.20
2022-12-27T18:23:19.720Z,32.10
2022-12-27T18:27:28.374Z,33.30
2022-12-27T18:31:40.151Z,33.60
2022-12-27T18:35:51.940Z,27.90
2022-12-27T18:40:01.939Z,28.50
2022-12-27T18:44:23.041Z,34.40
2022-12-27T18:48:36.835Z,42.80
2022-12-27T18:52:46.318Z,47.60
2022-12-27T18:56:58.596Z,56.00
2022-12-27T19:01:28.452Z,54.10
2022-12-27T19:05:36.510Z,47.60
2022-12-27T19:09:52.270Z,51.30
2022-12-27T19:14:01.419Z,37.30
2022-12-27T19:18:25.564Z,27.20
2022-12-27T19:22:42.413Z,19.50
2022-12-27T19:26:53.560Z,27.40
2022-12-27T19:31:16.817Z,35.90
2022-12-27T19:35:25.036Z,22.90
2022-12-27T19:39:35.131Z,30.40
2022-12-27T19:43:44.657Z,32.80
2022-12-27T19:47:54.338Z,29.30
2022-12-27T19:52:03.302Z,28.30
2022-12-27T19:56:12.508Z,28.10
2022-12-27T20:00:22.144Z,27.00
2022-12-27T20:04:30.845Z,24.40
2022-12-27T20:08:42.052Z,24.40
2022-12-27T20:12:50.269Z,22.90
2022-12-27T20:16:58.524Z,26.00
2022-12-27T20:21:06.443Z,26.70
2022-12-27T20:25:14.883Z,24.50
2022-12-27T20:29:23.419Z,27.20
2022-12-27T20:33:32.011Z,25.00
2022-12-27T20:37:41.113Z,22.50
2022-12-27T20:41:48.618Z,21.90
2022-12-27T20:45:56.485Z,21.30
2022-12-27T20:50:04.499Z,21.80
2022-12-27T20:54:16.661Z,23.90
2022-12-27T20:58:24.918Z,22.50
2022-12-27T21:02:33.706Z,23.10
2022-12-27T21:06:41.870Z,22.10
2022-12-27T21:10:50.123Z,22.80
2022-12-27T21:14:58.907Z,22.50
2022-12-27T21:19:07.044Z,24.70
2022-12-27T21:23:14.901Z,21.60
2022-12-27T21:27:24.710Z,25.30
2022-12-27T21:31:33.585Z,22.10
2022-12-27T21:35:41.658Z,25.90
2022-12-27T21:39:49.739Z,25.60
2022-12-27T21:43:57.959Z,23.20
2022-12-27T21:48:06.208Z,21.60
2022-12-27T21:52:13.681Z,23.70
2022-12-27T21:56:22.065Z,25.00
2022-12-27T22:00:29.341Z,25.70
2022-12-27T22:04:37.162Z,23.20
2022-12-27T22:08:47.193Z,20.50
2022-12-27T22:12:55.620Z,21.20
2022-12-27T22:17:03.779Z,19.50
2022-12-27T22:21:12.919Z,18.80
2022-12-27T22:25:20.839Z,19.60
2022-12-27T22:29:33.322Z,19.40
2022-12-27T22:33:44.618Z,19.30
2022-12-27T22:37:52.355Z,18.20
2022-12-27T22:42:00.581Z,18.10
2022-12-27T22:46:11.509Z,16.20
2022-12-27T22:50:19.671Z,17.80
2022-12-27T22:55:04.140Z,14.40
2022-12-27T22:58:55.908Z,14.30
2022-12-27T23:03:04.292Z,15.60
2022-12-27T23:07:12.481Z,15.30
2022-12-27T23:11:22.451Z,13.60
2022-12-27T23:15:30.430Z,13.10
2022-12-27T23:19:38.028Z,12.80
2022-12-27T23:23:46.051Z,15.20
2022-12-27T23:27:53.919Z,12.50
2022-12-27T23:32:01.505Z,14.10
2022-12-27T23:36:09.908Z,14.10
2022-12-27T23:40:17.929Z,13.40
2022-12-27T23:44:33.102Z,13.10
2022-12-27T23:48:43.237Z,12.00
2022-12-27T23:52:50.757Z,10.70
2022-12-27T23:56:58.666Z,13.70
